Time;durP1;ratioP1;P1;durP2;ratioP2;P2;SDS_P1;SDS_P2;PMS_P1;PMS_P2;Temp;Humidity;BMP_temperature;BMP_pressure;BME280_temperature;BME280_humidity;BME280_pressure;Samples;Min_cycle;Max_cycle;Signal;HPM_P1;HPM_P2
2021/08/31 00:01:24;;;;;;;12.07;10.55;;;;;;;;;;5053348;28;20056;-58
2021/08/31 00:03:50;;;;;;;11.43;10.23;;;;;;;;;;5054018;28;20075;-58
2021/08/31 00:06:16;;;;;;;12.23;10.43;;;;;;;;;;5052227;28;20036;-58
2021/08/31 00:08:42;;;;;;;12.38;10.32;;;;;;;;;;5052246;28;20029;-57
2021/08/31 00:11:08;;;;;;;11.88;9.77;;;;;;;;;;5053173;28;20254;-58
2021/08/31 00:13:34;;;;;;;15.05;9.77;;;;;;;;;;5054092;28;20046;-58
2021/08/31 00:16:00;;;;;;;10.85;9.73;;;;;;;;;;5053485;28;20033;-58
2021/08/31 00:18:28;;;;;;;16.40;9.23;;;;;;;;;;5052318;28;20371;-58
2021/08/31 00:20:54;;;;;;;10.98;8.93;;;;;;;;;;5053435;28;20070;-58
2021/08/31 00:23:20;;;;;;;11.48;9.68;;;;;;;;;;5053967;28;20384;-58
2021/08/31 00:25:52;;;;;;;10.25;8.98;;;;;;;;;;5053739;28;20038;-58
2021/08/31 00:28:18;;;;;;;12.27;9.55;;;;;;;;;;5053331;28;20057;-57
2021/08/31 00:30:44;;;;;;;11.15;9.43;;;;;;;;;;5053315;28;20057;-58
2021/08/31 00:33:10;;;;;;;10.15;9.15;;;;;;;;;;5053392;28;20029;-57
2021/08/31 00:35:36;;;;;;;10.25;8.70;;;;;;;;;;5053348;28;20040;-58
2021/08/31 00:38:02;;;;;;;11.82;10.35;;;;;;;;;;5053807;28;20071;-57
2021/08/31 00:40:30;;;;;;;10.98;8.55;;;;;;;;;;5052268;28;20029;-57
2021/08/31 00:42:56;;;;;;;11.07;10.05;;;;;;;;;;5053615;28;20550;-57
2021/08/31 00:45:22;;;;;;;15.70;10.68;;;;;;;;;;5053068;28;20123;-57
2021/08/31 00:47:49;;;;;;;14.13;10.98;;;;;;;;;;5053168;28;20129;-57
2021/08/31 00:50:19;;;;;;;12.00;10.57;;;;;;;;;;5053606;28;20027;-57
2021/08/31 00:52:45;;;;;;;;;;;;;;;;;;5054438;28;20091;-57
2021/08/31 00:55:14;;;;;;;12.57;10.75;;;;;;;;;;5057460;28;19908;-58
2021/08/31 00:57:41;;;;;;;16.70;12.15;;;;;;;;;;5055613;28;20033;-57
2021/08/31 01:00:09;;;;;;;13.15;10.85;;;;;;;;;;5039129;28;20467;-57
2021/08/31 01:02:37;;;;;;;15.73;11.75;;;;;;;;;;5055872;28;20526;-57
2021/08/31 01:05:04;;;;;;;14.20;11.70;;;;;;;;;;5056591;28;20527;-57
2021/08/31 01:07:30;;;;;;;17.20;13.95;;;;;;;;;;5056739;28;20371;-57
2021/08/31 01:09:56;;;;;;;15.15;13.55;;;;;;;;;;5056252;28;20394;-57
2021/08/31 01:12:23;;;;;;;15.43;12.02;;;;;;;;;;5056891;28;20071;-57
2021/08/31 01:14:49;;;;;;;17.35;13.65;;;;;;;;;;5054980;28;20033;-58
2021/08/31 01:17:15;;;;;;;16.05;13.27;;;;;;;;;;5055300;28;20029;-58
2021/08/31 01:19:41;;;;;;;15.25;13.55;;;;;;;;;;5056592;28;20024;-57
2021/08/31 01:22:08;;;;;;;17.63;14.38;;;;;;;;;;5056511;28;20032;-57
2021/08/31 01:24:35;;;;;;;16.95;15.00;;;;;;;;;;5056333;28;20532;-57
2021/08/31 01:27:01;;;;;;;17.90;15.95;;;;;;;;;;5056241;28;20024;-57
2021/08/31 01:29:28;;;;;;;20.05;15.23;;;;;;;;;;5054793;28;20547;-58
2021/08/31 01:31:54;;;;;;;18.23;15.48;;;;;;;;;;5056231;28;20032;-57
2021/08/31 01:34:23;;;;;;;20.40;15.23;;;;;;;;;;5056746;28;20526;-57
2021/08/31 01:36:49;;;;;;;15.70;14.25;;;;;;;;;;5054920;28;20378;-58
2021/08/31 01:39:15;;;;;;;19.42;16.38;;;;;;;;;;5056165;28;20029;-57
2021/08/31 01:41:41;;;;;;;17.35;14.30;;;;;;;;;;5056967;28;20025;-57
2021/08/31 01:44:07;;;;;;;14.30;12.50;;;;;;;;;;5056083;28;20025;-57
2021/08/31 01:46:33;;;;;;;15.77;13.98;;;;;;;;;;5038391;28;20044;-57
2021/08/31 01:48:59;;;;;;;16.05;14.20;;;;;;;;;;5055203;28;20021;-57
2021/08/31 01:51:25;;;;;;;16.40;14.65;;;;;;;;;;5056244;28;20021;-57
2021/08/31 01:53:51;;;;;;;16.92;14.35;;;;;;;;;;5055514;28;20029;-58
2021/08/31 01:56:17;;;;;;;17.15;15.38;;;;;;;;;;5056581;28;20384;-57
2021/08/31 01:58:43;;;;;;;15.63;14.05;;;;;;;;;;5055854;28;20494;-57
2021/08/31 02:01:09;;;;;;;16.77;14.98;;;;;;;;;;5055465;28;20107;-57
2021/08/31 02:03:35;;;;;;;19.25;15.73;;;;;;;;;;5056264;28;20064;-57
2021/08/31 02:06:01;;;;;;;19.95;16.23;;;;;;;;;;5055618;28;20064;-57
2021/08/31 02:08:27;;;;;;;19.52;16.55;;;;;;;;;;5054826;28;20082;-57
2021/08/31 02:10:53;;;;;;;18.95;15.27;;;;;;;;;;5054284;28;20058;-57
2021/08/31 02:13:21;;;;;;;22.25;16.05;;;;;;;;;;5055862;28;20028;-57
2021/08/31 02:15:47;;;;;;;23.15;16.05;;;;;;;;;;5055536;28;20108;-57
2021/08/31 02:18:13;;;;;;;18.15;15.05;;;;;;;;;;5055501;28;20435;-58
2021/08/31 02:20:39;;;;;;;18.90;15.77;;;;;;;;;;5055339;28;20032;-57
2021/08/31 02:23:05;;;;;;;16.00;13.90;;;;;;;;;;5055840;28;20025;-57
2021/08/31 02:25:32;;;;;;;15.90;13.15;;;;;;;;;;5054708;28;20044;-57
2021/08/31 02:27:58;;;;;;;16.38;13.40;;;;;;;;;;5055022;28;20113;-58
2021/08/31 02:30:24;;;;;;;21.35;14.25;;;;;;;;;;5055798;28;20437;-58
2021/08/31 02:32:50;;;;;;;13.75;11.88;;;;;;;;;;5053606;28;20120;-57
2021/08/31 02:35:17;;;;;;;17.35;14.63;;;;;;;;;;5055635;28;20091;-58
2021/08/31 02:37:43;;;;;;;17.77;13.75;;;;;;;;;;5054805;28;20397;-57
2021/08/31 02:40:09;;;;;;;17.48;13.43;;;;;;;;;;5054848;28;20147;-57
2021/08/31 02:42:36;;;;;;;18.60;15.35;;;;;;;;;;5055064;28;20036;-57
2021/08/31 02:45:02;;;;;;;19.08;15.00;;;;;;;;;;5054819;28;20124;-58
2021/08/31 02:47:28;;;;;;;14.55;12.80;;;;;;;;;;5055308;28;20025;-57
2021/08/31 02:49:57;;;;;;;14.98;13.48;;;;;;;;;;5055382;28;20029;-57
2021/08/31 02:52:23;;;;;;;19.90;14.68;;;;;;;;;;5054853;28;20040;-58
2021/08/31 02:54:49;;;;;;;19.08;14.10;;;;;;;;;;5054376;28;20071;-57
2021/08/31 02:57:15;;;;;;;17.27;14.05;;;;;;;;;;5053987;28;20120;-57
2021/08/31 02:59:41;;;;;;;16.75;14.43;;;;;;;;;;5053490;28;20104;-57
2021/08/31 03:02:07;;;;;;;24.02;16.02;;;;;;;;;;5053889;28;20413;-57
2021/08/31 03:04:35;;;;;;;17.33;13.65;;;;;;;;;;5054108;28;20467;-57
2021/08/31 03:07:01;;;;;;;15.80;14.13;;;;;;;;;;5055221;28;20055;-57
2021/08/31 03:09:27;;;;;;;19.70;13.95;;;;;;;;;;5054663;28;20470;-57
2021/08/31 03:11:53;;;;;;;18.48;13.15;;;;;;;;;;5053995;28;20021;-57
2021/08/31 03:14:19;;;;;;;15.02;12.80;;;;;;;;;;5053912;28;20060;-58
2021/08/31 03:16:49;;;;;;;18.23;14.55;;;;;;;;;;5052931;28;20366;-58
2021/08/31 03:19:15;;;;;;;16.02;14.38;;;;;;;;;;5053046;28;20032;-58
2021/08/31 03:21:44;;;;;;;19.45;14.60;;;;;;;;;;5054279;28;20025;-57
2021/08/31 03:24:10;;;;;;;15.68;13.13;;;;;;;;;;5052865;28;20057;-58
2021/08/31 03:26:36;;;;;;;14.88;13.13;;;;;;;;;;5053732;28;20064;-57
2021/08/31 03:29:02;;;;;;;17.73;14.52;;;;;;;;;;5053847;28;20453;-57
2021/08/31 03:31:28;;;;;;;15.57;12.75;;;;;;;;;;5054295;28;20025;-57
2021/08/31 03:33:54;;;;;;;15.75;12.85;;;;;;;;;;5054937;28;20025;-58
2021/08/31 03:36:20;;;;;;;16.35;11.95;;;;;;;;;;5054017;28;20028;-57
2021/08/31 03:38:46;;;;;;;15.07;13.38;;;;;;;;;;5053906;28;20079;-57
2021/08/31 03:41:12;;;;;;;17.63;14.73;;;;;;;;;;5053895;28;20056;-57
2021/08/31 03:43:39;;;;;;;16.55;14.57;;;;;;;;;;5054224;28;20477;-57
2021/08/31 03:46:05;;;;;;;17.60;13.65;;;;;;;;;;5054609;28;20067;-58
2021/08/31 03:48:31;;;;;;;18.35;13.88;;;;;;;;;;5053899;28;20033;-57
2021/08/31 03:50:57;;;;;;;16.65;12.82;;;;;;;;;;5053599;28;20029;-58
2021/08/31 03:53:23;;;;;;;22.77;13.98;;;;;;;;;;5054176;28;20024;-57
2021/08/31 03:55:49;;;;;;;18.83;14.88;;;;;;;;;;5035880;28;20447;-57
2021/08/31 03:58:15;;;;;;;19.65;14.02;;;;;;;;;;5052423;28;20352;-57
2021/08/31 04:00:41;;;;;;;18.17;14.05;;;;;;;;;;5053626;28;20032;-57
2021/08/31 04:03:07;;;;;;;15.15;13.55;;;;;;;;;;5054029;28;20029;-57
2021/08/31 04:05:33;;;;;;;16.90;13.15;;;;;;;;;;5053603;28;20123;-59
2021/08/31 04:07:59;;;;;;;15.77;12.65;;;;;;;;;;5054389;28;20021;-59
2021/08/31 04:10:25;;;;;;;21.17;13.95;;;;;;;;;;5054160;28;20036;-59
2021/08/31 04:12:51;;;;;;;18.25;15.25;;;;;;;;;;5052574;28;20029;-59
2021/08/31 04:15:17;;;;;;;17.02;14.75;;;;;;;;;;5053793;28;20108;-58
2021/08/31 04:17:43;;;;;;;17.25;13.43;;;;;;;;;;5054038;28;20178;-59
2021/08/31 04:20:10;;;;;;;17.63;13.48;;;;;;;;;;5054312;28;20375;-59
2021/08/31 04:22:35;;;;;;;15.55;12.88;;;;;;;;;;5053099;28;20052;-58
2021/08/31 04:25:01;;;;;;;18.30;14.23;;;;;;;;;;5053421;28;20091;-58
2021/08/31 04:27:27;;;;;;;16.20;14.50;;;;;;;;;;5055456;28;20025;-58
2021/08/31 04:29:53;;;;;;;15.57;13.68;;;;;;;;;;5058103;28;20045;-58
2021/08/31 04:32:19;;;;;;;17.88;14.02;;;;;;;;;;5057077;28;20028;-58
2021/08/31 04:34:46;;;;;;;16.33;14.65;;;;;;;;;;5057453;28;20116;-59
2021/08/31 04:37:12;;;;;;;16.52;13.68;;;;;;;;;;5056219;28;20378;-59
2021/08/31 04:39:38;;;;;;;16.80;12.85;;;;;;;;;;5057402;28;20530;-59
2021/08/31 04:42:06;;;;;;;15.85;13.98;;;;;;;;;;5057719;28;20044;-59
2021/08/31 04:44:35;;;;;;;16.30;14.15;;;;;;;;;;5057250;28;20082;-59
2021/08/31 04:47:04;;;;;;;17.63;13.70;;;;;;;;;;5056921;28;20112;-58
2021/08/31 04:49:30;;;;;;;14.60;13.10;;;;;;;;;;5057221;28;20017;-58
2021/08/31 04:51:56;;;;;;;19.73;15.25;;;;;;;;;;5057787;28;20405;-58
2021/08/31 04:54:22;;;;;;;22.17;14.55;;;;;;;;;;5055933;28;20024;-58
2021/08/31 04:56:48;;;;;;;14.85;13.35;;;;;;;;;;5057138;28;20420;-59
2021/08/31 04:59:14;;;;;;;18.70;15.90;;;;;;;;;;5056284;28;20043;-58
2021/08/31 05:01:40;;;;;;;19.15;14.20;;;;;;;;;;5039545;28;20450;-58
2021/08/31 05:04:06;;;;;;;14.43;12.93;;;;;;;;;;5056864;28;20060;-58
2021/08/31 05:06:33;;;;;;;16.05;13.73;;;;;;;;;;5057111;28;20037;-58
2021/08/31 05:08:59;;;;;;;16.80;14.27;;;;;;;;;;5057171;28;20029;-58
2021/08/31 05:11:25;;;;;;;15.65;12.43;;;;;;;;;;5056454;28;20025;-58
2021/08/31 05:13:51;;;;;;;15.18;13.18;;;;;;;;;;5056894;28;20035;-58
2021/08/31 05:16:17;;;;;;;16.60;14.05;;;;;;;;;;5055992;28;20025;-58
2021/08/31 05:18:44;;;;;;;17.52;15.68;;;;;;;;;;5038858;28;20025;-59
2021/08/31 05:21:12;;;;;;;19.63;16.15;;;;;;;;;;5056616;28;20098;-58
2021/08/31 05:23:42;;;;;;;16.95;14.52;;;;;;;;;;5056725;28;20091;-59
2021/08/31 05:26:08;;;;;;;19.98;16.38;;;;;;;;;;5056354;28;20060;-58
2021/08/31 05:28:34;;;;;;;16.77;14.98;;;;;;;;;;5056041;28;20120;-58
2021/08/31 05:30:59;;;;;;;23.15;15.27;;;;;;;;;;5055949;28;20112;-58
2021/08/31 05:33:25;;;;;;;19.10;14.05;;;;;;;;;;5055668;28;20167;-59
2021/08/31 05:35:51;;;;;;;20.02;14.65;;;;;;;;;;5056342;28;20036;-59
2021/08/31 05:38:17;;;;;;;16.70;13.35;;;;;;;;;;5056080;28;20017;-58
2021/08/31 05:40:43;;;;;;;19.02;14.70;;;;;;;;;;5056471;28;20079;-58
2021/08/31 05:43:09;;;;;;;16.23;14.45;;;;;;;;;;5055384;28;20025;-59
2021/08/31 05:45:35;;;;;;;19.80;14.55;;;;;;;;;;5056030;28;20128;-58
2021/08/31 05:48:01;;;;;;;15.35;13.65;;;;;;;;;;5056789;28;20025;-59
2021/08/31 05:50:30;;;;;;;16.42;14.50;;;;;;;;;;5055964;28;20022;-58
2021/08/31 05:52:56;;;;;;;17.17;15.10;;;;;;;;;;5056816;28;20068;-58
2021/08/31 05:55:22;;;;;;;22.60;14.57;;;;;;;;;;5055627;28;20386;-58
2021/08/31 05:57:48;;;;;;;16.88;12.95;;;;;;;;;;5055967;28;20108;-58
2021/08/31 06:00:15;;;;;;;16.10;14.18;;;;;;;;;;5055127;28;20021;-59
2021/08/31 06:02:46;;;;;;;19.35;14.98;;;;;;;;;;5056073;28;20021;-58
2021/08/31 06:05:12;;;;;;;20.45;14.77;;;;;;;;;;5055652;28;20037;-58
2021/08/31 06:07:42;;;;;;;15.85;13.15;;;;;;;;;;5055592;28;20032;-58
2021/08/31 06:10:13;;;;;;;19.13;14.10;;;;;;;;;;5055696;28;20025;-58
2021/08/31 06:12:42;;;;;;;15.35;12.82;;;;;;;;;;5054943;28;20115;-58
2021/08/31 06:15:08;;;;;;;17.33;13.48;;;;;;;;;;5055577;28;20029;-59
2021/08/31 06:17:38;;;;;;;14.70;13.07;;;;;;;;;;5055846;28;20029;-59
2021/08/31 06:20:08;;;;;;;18.02;13.60;;;;;;;;;;5054272;28;20100;-59
2021/08/31 06:22:37;;;;;;;13.80;12.32;;;;;;;;;;5055187;28;20477;-59
2021/08/31 06:25:03;;;;;;;17.75;13.05;;;;;;;;;;5055381;28;20079;-59
2021/08/31 06:27:29;;;;;;;16.48;13.35;;;;;;;;;;5055189;28;20029;-60
2021/08/31 06:29:55;;;;;;;14.73;13.02;;;;;;;;;;5055700;28;20048;-59
2021/08/31 06:32:21;;;;;;;15.13;11.85;;;;;;;;;;5054016;28;20055;-59
2021/08/31 06:34:47;;;;;;;18.05;12.57;;;;;;;;;;5055251;28;20024;-59
2021/08/31 06:37:13;;;;;;;13.57;11.27;;;;;;;;;;5055992;28;20025;-59
2021/08/31 06:39:39;;;;;;;13.05;11.73;;;;;;;;;;5053876;28;20474;-59
2021/08/31 06:42:05;;;;;;;13.57;12.10;;;;;;;;;;5053544;28;20067;-59
2021/08/31 06:44:31;;;;;;;12.18;10.90;;;;;;;;;;5054915;28;20025;-59
2021/08/31 06:46:57;;;;;;;15.23;13.23;;;;;;;;;;5055277;28;20032;-58
2021/08/31 06:49:23;;;;;;;14.13;12.65;;;;;;;;;;5054467;28;20146;-58
2021/08/31 06:51:49;;;;;;;12.48;11.18;;;;;;;;;;5054510;28;20550;-58
2021/08/31 06:54:16;;;;;;;14.90;13.30;;;;;;;;;;5055003;28;20029;-58
2021/08/31 06:56:42;;;;;;;13.32;11.95;;;;;;;;;;5053572;28;20367;-58
2021/08/31 06:59:10;;;;;;;13.93;12.00;;;;;;;;;;5053613;28;20029;-58
2021/08/31 07:01:38;;;;;;;12.65;11.27;;;;;;;;;;5055258;28;20031;-58
2021/08/31 07:04:04;;;;;;;14.15;11.68;;;;;;;;;;5054589;28;20060;-58
2021/08/31 07:06:30;;;;;;;14.82;10.55;;;;;;;;;;5054499;28;20036;-58
2021/08/31 07:08:58;;;;;;;17.17;11.32;;;;;;;;;;5054599;28;20082;-58
2021/08/31 07:11:34;;;;;;;12.90;11.55;;;;;;;;;;5070739;27;1263500;-58
2021/08/31 07:14:00;;;;;;;13.25;11.95;;;;;;;;;;5091239;28;20487;-58
2021/08/31 07:16:26;;;;;;;19.35;11.02;;;;;;;;;;5072939;28;20028;-58
2021/08/31 07:18:52;;;;;;;13.70;12.20;;;;;;;;;;5073868;28;20086;-58
2021/08/31 07:21:20;;;;;;;11.38;10.18;;;;;;;;;;5072985;28;20028;-58
2021/08/31 07:23:46;;;;;;;12.52;10.93;;;;;;;;;;5091371;28;20024;-58
2021/08/31 07:26:12;;;;;;;12.38;9.77;;;;;;;;;;5072575;28;20051;-58
2021/08/31 07:28:39;;;;;;;15.10;11.52;;;;;;;;;;5073587;28;20150;-58
2021/08/31 07:31:10;;;;;;;14.10;11.40;;;;;;;;;;5070537;28;20032;-58
2021/08/31 07:33:36;;;;;;;12.45;10.23;;;;;;;;;;5070422;28;20421;-58
2021/08/31 07:36:02;;;;;;;13.57;10.95;;;;;;;;;;5070631;28;20039;-59
2021/08/31 07:38:29;;;;;;;13.07;10.90;;;;;;;;;;5053391;28;20032;-59
2021/08/31 07:40:55;;;;;;;12.13;10.63;;;;;;;;;;5036130;28;20115;-59
2021/08/31 07:43:21;;;;;;;13.68;10.05;;;;;;;;;;5070384;28;20025;-58
2021/08/31 07:45:47;;;;;;;12.15;10.00;;;;;;;;;;5070430;28;20108;-58
2021/08/31 07:48:13;;;;;;;11.88;9.43;;;;;;;;;;5070873;28;20254;-58
2021/08/31 07:50:41;;;;;;;12.70;10.38;;;;;;;;;;5069922;28;20378;-59
2021/08/31 07:53:07;;;;;;;13.40;9.95;;;;;;;;;;5052879;28;20029;-58
2021/08/31 07:55:33;;;;;;;11.48;10.27;;;;;;;;;;5051854;28;20079;-58
2021/08/31 07:57:59;;;;;;;14.85;9.60;;;;;;;;;;5070427;28;20168;-58
2021/08/31 08:00:25;;;;;;;12.02;10.35;;;;;;;;;;5070375;28;20359;-58
2021/08/31 08:02:51;;;;;;;13.82;10.75;;;;;;;;;;5070079;28;20025;-58
2021/08/31 08:05:17;;;;;;;12.40;9.38;;;;;;;;;;5070453;28;20082;-58
2021/08/31 08:07:43;;;;;;;13.23;10.40;;;;;;;;;;5051765;28;20025;-58
2021/08/31 08:10:09;;;;;;;10.27;8.73;;;;;;;;;;5070189;28;20099;-58
2021/08/31 08:12:35;;;;;;;10.85;9.75;;;;;;;;;;5069789;28;20143;-58
2021/08/31 08:15:02;;;;;;;15.13;9.80;;;;;;;;;;5051973;28;20375;-58
2021/08/31 08:17:28;;;;;;;11.55;9.18;;;;;;;;;;5069599;28;20057;-58
2021/08/31 08:19:54;;;;;;;9.60;8.35;;;;;;;;;;5069595;28;20035;-58
2021/08/31 08:22:20;;;;;;;10.98;8.95;;;;;;;;;;5060359;28;20025;-59
2021/08/31 08:24:46;;;;;;;10.43;8.90;;;;;;;;;;5056667;28;20032;-58
2021/08/31 08:27:12;;;;;;;10.27;9.27;;;;;;;;;;5056294;28;20033;-59
2021/08/31 08:29:38;;;;;;;10.20;8.57;;;;;;;;;;5056290;28;20037;-58
2021/08/31 08:32:09;;;;;;;10.10;8.20;;;;;;;;;;5038738;28;20040;-58
2021/08/31 08:34:35;;;;;;;;;;;;;;;;;;5056678;28;20033;-59
2021/08/31 08:37:02;;;;;;;8.63;7.78;;;;;;;;;;5056216;28;19951;-58
2021/08/31 08:39:36;;;;;;;11.05;7.60;;;;;;;;;;5038767;28;20060;-59
2021/08/31 08:42:04;;;;;;;8.80;7.35;;;;;;;;;;5056879;28;20397;-59
2021/08/31 08:44:31;;;;;;;9.10;8.20;;;;;;;;;;5056423;28;20021;-59
2021/08/31 08:46:57;;;;;;;8.93;7.90;;;;;;;;;;5055944;28;20029;-58
2021/08/31 08:49:25;;;;;;;9.40;7.28;;;;;;;;;;5037999;28;20120;-59
2021/08/31 08:51:53;;;;;;;14.02;8.23;;;;;;;;;;5056741;28;20037;-59
2021/08/31 08:54:19;;;;;;;10.02;7.60;;;;;;;;;;5055886;28;20025;-59
2021/08/31 08:56:45;;;;;;;9.00;7.10;;;;;;;;;;5055751;28;20375;-58
2021/08/31 08:59:12;;;;;;;10.73;8.70;;;;;;;;;;5056065;28;20036;-58
2021/08/31 09:01:44;;;;;;;9.60;8.13;;;;;;;;;;5055848;28;20021;-58
2021/08/31 09:04:13;;;;;;;12.02;7.65;;;;;;;;;;5055641;28;20102;-58
2021/08/31 09:06:40;;;;;;;10.70;8.27;;;;;;;;;;5056476;28;20025;-58
2021/08/31 09:09:07;;;;;;;7.60;6.28;;;;;;;;;;5055963;28;20044;-59
2021/08/31 09:11:38;;;;;;;7.07;6.38;;;;;;;;;;5021355;28;20087;-59
2021/08/31 09:14:22;;;;;;;9.18;7.43;;;;;;;;;;5055536;28;20033;-59
2021/08/31 09:16:50;;;;;;;8.48;7.57;;;;;;;;;;5055401;28;20029;-59
2021/08/31 09:19:16;;;;;;;9.52;7.47;;;;;;;;;;5021694;28;20079;-59
2021/08/31 09:21:46;;;;;;;12.52;8.48;;;;;;;;;;5038120;28;20025;-59
2021/08/31 09:24:13;;;;;;;9.57;6.45;;;;;;;;;;5037533;28;20463;-59
2021/08/31 09:26:39;;;;;;;11.48;6.70;;;;;;;;;;5055321;28;20033;-59
2021/08/31 09:29:12;;;;;;;6.75;6.05;;;;;;;;;;5037401;28;20090;-59
2021/08/31 09:31:45;;;;;;;8.30;7.03;;;;;;;;;;5037613;28;20491;-59
2021/08/31 09:34:31;;;;;;;8.60;5.82;;;;;;;;;;5054124;28;20345;-59
2021/08/31 09:37:17;;;;;;;6.90;6.15;;;;;;;;;;5055824;28;20083;-59
2021/08/31 09:39:44;;;;;;;9.80;6.70;;;;;;;;;;5036638;28;20029;-59
2021/08/31 09:42:10;;;;;;;6.53;5.78;;;;;;;;;;5055410;28;20064;-59
2021/08/31 09:44:36;;;;;;;6.30;5.68;;;;;;;;;;5054888;28;20032;-59
2021/08/31 09:47:03;;;;;;;6.97;6.00;;;;;;;;;;5055084;28;20029;-58
2021/08/31 09:49:29;;;;;;;9.68;6.25;;;;;;;;;;5055470;28;20032;-59
2021/08/31 09:52:12;;;;;;;5.97;5.38;;;;;;;;;;5055332;28;20025;-59
2021/08/31 09:54:41;;;;;;;7.68;5.50;;;;;;;;;;5054702;28;20371;-59
2021/08/31 09:57:26;;;;;;;8.70;5.80;;;;;;;;;;5054545;28;20028;-58
2021/08/31 09:59:52;;;;;;;7.10;5.13;;;;;;;;;;5054957;28;20024;-58
2021/08/31 10:02:18;;;;;;;5.88;4.93;;;;;;;;;;5036808;28;20025;-58
2021/08/31 10:04:45;;;;;;;9.07;6.00;;;;;;;;;;5036867;28;20021;-58
2021/08/31 10:07:12;;;;;;;6.03;5.43;;;;;;;;;;5036577;28;20467;-58
2021/08/31 10:09:39;;;;;;;6.43;5.70;;;;;;;;;;5054288;28;20029;-58
2021/08/31 10:12:08;;;;;;;6.53;5.80;;;;;;;;;;5054673;28;20031;-58
2021/08/31 10:14:35;;;;;;;8.38;4.65;;;;;;;;;;5037249;28;20367;-58
2021/08/31 10:17:01;;;;;;;7.85;5.65;;;;;;;;;;5054318;28;20021;-58
2021/08/31 10:19:28;;;;;;;6.85;5.90;;;;;;;;;;5036657;28;20375;-58
2021/08/31 10:21:55;;;;;;;7.57;5.82;;;;;;;;;;5054546;28;20043;-58
2021/08/31 10:24:21;;;;;;;6.75;5.68;;;;;;;;;;5054274;28;20051;-58
2021/08/31 10:26:47;;;;;;;6.20;5.50;;;;;;;;;;5037024;28;20418;-58
2021/08/31 10:29:16;;;;;;;5.93;5.10;;;;;;;;;;5036065;28;20029;-58
2021/08/31 10:31:43;;;;;;;6.32;5.57;;;;;;;;;;5054819;28;20028;-58
2021/08/31 10:34:28;;;;;;;7.75;6.10;;;;;;;;;;5054797;28;20029;-58
2021/08/31 10:37:14;;;;;;;9.77;4.55;;;;;;;;;;5036113;28;20462;-58
2021/08/31 10:39:44;;;;;;;6.35;5.47;;;;;;;;;;5054260;28;20112;-58
2021/08/31 10:42:11;;;;;;;9.73;5.93;;;;;;;;;;5054023;28;20024;-59
2021/08/31 10:44:41;;;;;;;7.82;5.13;;;;;;;;;;5053288;28;20044;-58
2021/08/31 10:47:14;;;;;;;7.97;5.57;;;;;;;;;;5036833;28;20115;-58
2021/08/31 10:50:08;;;;;;;8.90;4.88;;;;;;;;;;5053735;28;20483;-58
2021/08/31 10:52:43;;;;;;;5.22;4.55;;;;;;;;;;5044249;28;20033;-58
2021/08/31 10:55:19;;;;;;;6.80;4.78;;;;;;;;;;5053664;28;20018;-58
2021/08/31 10:57:47;;;;;;;10.90;4.47;;;;;;;;;;5053659;28;20025;-58
2021/08/31 11:00:16;;;;;;;6.07;4.82;;;;;;;;;;5053879;28;20029;-58
2021/08/31 11:02:49;;;;;;;8.55;4.65;;;;;;;;;;5054405;28;20028;-58
2021/08/31 11:05:24;;;;;;;5.68;5.15;;;;;;;;;;5054161;28;20158;-58
2021/08/31 11:07:50;;;;;;;5.47;4.55;;;;;;;;;;5053500;28;20028;-58
2021/08/31 11:10:23;;;;;;;6.35;4.90;;;;;;;;;;5035340;28;20060;-58
2021/08/31 11:12:50;;;;;;;5.40;4.35;;;;;;;;;;5053463;28;20032;-58
2021/08/31 11:15:23;;;;;;;5.97;4.68;;;;;;;;;;5035682;28;20021;-58
2021/08/31 11:17:50;;;;;;;5.80;4.55;;;;;;;;;;5035605;28;20108;-58
2021/08/31 11:20:18;;;;;;;4.97;4.07;;;;;;;;;;5053428;28;20036;-58
2021/08/31 11:22:49;;;;;;;5.18;3.78;;;;;;;;;;5053801;28;20037;-58
2021/08/31 11:25:16;;;;;;;5.97;4.68;;;;;;;;;;5053400;28;20021;-58
2021/08/31 11:27:52;;;;;;;4.28;3.88;;;;;;;;;;5053804;28;20029;-58
2021/08/31 11:30:18;;;;;;;5.80;4.78;;;;;;;;;;5035979;28;20426;-58
2021/08/31 11:32:44;;;;;;;6.50;3.92;;;;;;;;;;5053358;28;20029;-58
2021/08/31 11:35:10;;;;;;;5.80;4.20;;;;;;;;;;5053366;28;20017;-58
2021/08/31 11:37:49;;;;;;;5.75;4.50;;;;;;;;;;5036259;28;20033;-58
2021/08/31 11:40:17;;;;;;;5.38;4.00;;;;;;;;;;5053248;28;20116;-58
2021/08/31 11:42:50;;;;;;;4.63;4.22;;;;;;;;;;5053270;28;20075;-58
2021/08/31 11:45:16;;;;;;;7.03;4.00;;;;;;;;;;5035436;28;20043;-58
2021/08/31 11:47:45;;;;;;;6.60;4.90;;;;;;;;;;5035380;28;20075;-58
2021/08/31 11:50:12;;;;;;;6.50;5.60;;;;;;;;;;5052839;28;20033;-58
2021/08/31 11:52:38;;;;;;;6.38;5.15;;;;;;;;;;5036286;28;20094;-58
2021/08/31 11:55:04;;;;;;;7.45;6.03;;;;;;;;;;5053122;28;20025;-59
2021/08/31 11:57:31;;;;;;;10.10;5.50;;;;;;;;;;5055715;28;20489;-58
2021/08/31 11:59:57;;;;;;;7.65;5.05;;;;;;;;;;5057157;28;20032;-58
2021/08/31 12:02:24;;;;;;;5.57;4.97;;;;;;;;;;5056967;28;20412;-58
2021/08/31 12:04:57;;;;;;;6.47;5.43;;;;;;;;;;5038763;28;20116;-58
2021/08/31 12:07:24;;;;;;;6.05;5.45;;;;;;;;;;5039386;28;20033;-59
2021/08/31 12:09:52;;;;;;;5.25;4.75;;;;;;;;;;5057109;28;20440;-58
2021/08/31 12:12:19;;;;;;;6.90;5.65;;;;;;;;;;5056704;28;20031;-58
2021/08/31 12:14:47;;;;;;;6.65;4.75;;;;;;;;;;5056514;28;20451;-58
2021/08/31 12:17:13;;;;;;;7.30;5.35;;;;;;;;;;5056961;28;20068;-58
2021/08/31 12:19:45;;;;;;;7.40;4.55;;;;;;;;;;5057252;28;20025;-58
2021/08/31 12:22:16;;;;;;;6.47;4.75;;;;;;;;;;5056769;28;20021;-58
2021/08/31 12:24:44;;;;;;;5.15;4.15;;;;;;;;;;5056406;28;20379;-58
2021/08/31 12:27:14;;;;;;;4.82;4.05;;;;;;;;;;5038869;28;20021;-58
2021/08/31 12:29:53;;;;;;;7.15;4.97;;;;;;;;;;5038386;28;20463;-58
2021/08/31 12:32:25;;;;;;;8.40;5.18;;;;;;;;;;5056966;28;20025;-59
2021/08/31 12:34:51;;;;;;;6.38;5.68;;;;;;;;;;5038662;28;20025;-59
2021/08/31 12:37:31;;;;;;;7.68;5.53;;;;;;;;;;5056290;28;20459;-59
2021/08/31 12:40:21;;;;;;;6.27;4.83;;;;;;;;;;5038875;28;20025;-62
2021/08/31 12:42:49;;;;;;;5.93;5.28;;;;;;;;;;5044139;28;20051;-58
2021/08/31 12:45:24;;;;;;;5.15;4.28;;;;;;;;;;5055787;28;20481;-59
2021/08/31 12:48:05;;;;;;;6.13;4.90;;;;;;;;;;5021758;28;20021;-59
2021/08/31 12:50:37;;;;;;;6.43;4.97;;;;;;;;;;5056446;28;20124;-59
2021/08/31 12:53:07;;;;;;;4.30;3.90;;;;;;;;;;5056234;28;20056;-59
2021/08/31 12:55:34;;;;;;;5.50;4.63;;;;;;;;;;5056639;28;20029;-60
2021/08/31 12:58:19;;;;;;;5.82;4.45;;;;;;;;;;5038476;28;20067;-60
2021/08/31 13:00:45;;;;;;;5.80;4.63;;;;;;;;;;5055808;28;20065;-60
2021/08/31 13:03:28;;;;;;;4.65;4.05;;;;;;;;;;5055882;28;20033;-59
2021/08/31 13:05:58;;;;;;;5.60;3.83;;;;;;;;;;5038164;28;20028;-59
2021/08/31 13:08:24;;;;;;;5.68;4.43;;;;;;;;;;5037585;28;20111;-59
2021/08/31 13:10:50;;;;;;;5.68;4.78;;;;;;;;;;5037754;28;20128;-59
2021/08/31 13:13:26;;;;;;;5.97;3.72;;;;;;;;;;5038030;28;20379;-59
2021/08/31 13:15:52;;;;;;;5.95;4.32;;;;;;;;;;5055492;28;20104;-60
2021/08/31 13:18:20;;;;;;;6.13;4.75;;;;;;;;;;5055787;28;20053;-58
2021/08/31 13:20:46;;;;;;;4.75;4.18;;;;;;;;;;5037887;28;20035;-57
2021/08/31 13:23:12;;;;;;;7.05;4.35;;;;;;;;;;5037102;28;20021;-57
2021/08/31 13:25:38;;;;;;;6.30;4.75;;;;;;;;;;5056077;28;20032;-59
2021/08/31 13:28:12;;;;;;;7.50;4.40;;;;;;;;;;5055250;28;20053;-59
2021/08/31 13:30:39;;;;;;;5.70;3.70;;;;;;;;;;5037614;28;20021;-59
2021/08/31 13:33:05;;;;;;;5.10;3.85;;;;;;;;;;5055668;28;20375;-59
2021/08/31 13:35:31;;;;;;;5.20;3.90;;;;;;;;;;5037239;28;20029;-59
2021/08/31 13:37:57;;;;;;;4.97;4.22;;;;;;;;;;5055060;28;20474;-59
2021/08/31 13:40:23;;;;;;;4.63;4.18;;;;;;;;;;5021631;28;20036;-59
2021/08/31 13:42:49;;;;;;;6.32;4.53;;;;;;;;;;5037945;28;20339;-59
2021/08/31 13:45:15;;;;;;;4.90;3.92;;;;;;;;;;5054940;28;20527;-59
2021/08/31 13:47:41;;;;;;;4.05;3.55;;;;;;;;;;5054937;28;20053;-59
2021/08/31 13:50:08;;;;;;;5.28;4.55;;;;;;;;;;5054431;28;20112;-59
2021/08/31 13:52:34;;;;;;;4.65;3.35;;;;;;;;;;5054932;28;20037;-59
2021/08/31 13:55:00;;;;;;;5.28;4.15;;;;;;;;;;5054446;28;20351;-59
2021/08/31 13:57:29;;;;;;;5.95;3.70;;;;;;;;;;5054710;28;20025;-59
2021/08/31 13:59:56;;;;;;;6.22;4.18;;;;;;;;;;5054998;28;20496;-59
2021/08/31 14:02:22;;;;;;;4.70;3.50;;;;;;;;;;5055320;28;20028;-59
2021/08/31 14:04:52;;;;;;;5.43;3.75;;;;;;;;;;5037257;28;20063;-59
2021/08/31 14:07:18;;;;;;;5.25;4.03;;;;;;;;;;5037442;28;20078;-59
2021/08/31 14:09:44;;;;;;;5.13;3.92;;;;;;;;;;5054278;28;20102;-59
2021/08/31 14:12:10;;;;;;;4.15;3.60;;;;;;;;;;5054656;28;20017;-59
2021/08/31 14:14:36;;;;;;;5.25;3.72;;;;;;;;;;5054411;28;20025;-59
2021/08/31 14:17:03;;;;;;;6.75;3.95;;;;;;;;;;5054327;28;20024;-59
2021/08/31 14:19:29;;;;;;;4.55;3.72;;;;;;;;;;5035976;28;20032;-59
2021/08/31 14:21:55;;;;;;;5.15;4.65;;;;;;;;;;5054898;28;20024;-59
2021/08/31 14:24:27;;;;;;;5.45;4.82;;;;;;;;;;5054176;28;20021;-59
2021/08/31 14:26:56;;;;;;;8.75;4.63;;;;;;;;;;5036491;28;20032;-59
2021/08/31 14:29:22;;;;;;;5.95;4.85;;;;;;;;;;5054504;28;20025;-59
2021/08/31 14:31:48;;;;;;;5.25;4.57;;;;;;;;;;5053961;28;20111;-59